createdAt,value
2018-03-30T00:00:48.813Z,16.07
2018-03-30T00:03:16.443Z,16.50
2018-03-30T00:05:44.071Z,21.40
2018-03-30T00:08:11.697Z,17.37
2018-03-30T00:10:44.826Z,20.33
2018-03-30T00:13:12.381Z,14.97
2018-03-30T00:15:39.946Z,17.10
2018-03-30T00:18:07.502Z,14.50
2018-03-30T00:20:35.185Z,14.90
2018-03-30T00:23:02.809Z,18.40
2018-03-30T00:25:30.426Z,18.93
2018-03-30T00:27:57.995Z,17.10
2018-03-30T00:30:25.558Z,18.13
2018-03-30T00:32:53.126Z,21.47
2018-03-30T00:35:20.700Z,21.00
2018-03-30T00:37:48.306Z,19.63
2018-03-30T00:40:15.866Z,34.23
2018-03-30T00:42:43.482Z,23.23
2018-03-30T00:45:11.103Z,18.90
2018-03-30T00:47:38.719Z,25.67
2018-03-30T00:50:06.286Z,19.17
2018-03-30T00:52:33.849Z,23.73
2018-03-30T00:55:01.514Z,23.27
2018-03-30T00:57:29.088Z,19.30
2018-03-30T00:59:56.720Z,26.87
2018-03-30T01:02:24.316Z,26.10
2018-03-30T01:04:51.938Z,31.87
2018-03-30T01:07:19.505Z,24.70
2018-03-30T01:09:47.130Z,27.00
2018-03-30T01:12:14.737Z,24.63
2018-03-30T01:14:42.308Z,29.53
2018-03-30T01:17:09.872Z,26.40
2018-03-30T01:19:37.510Z,18.90
2018-03-30T01:22:05.066Z,25.23
2018-03-30T01:24:32.634Z,22.03
2018-03-30T01:27:00.262Z,22.20
2018-03-30T01:29:27.870Z,30.17
2018-03-30T01:31:55.490Z,31.30
2018-03-30T01:34:23.051Z,22.47
2018-03-30T01:36:50.680Z,24.57
2018-03-30T01:39:18.238Z,31.33
2018-03-30T01:41:45.863Z,91.97
2018-03-30T01:44:13.418Z,62.67
2018-03-30T01:46:41.038Z,30.93
2018-03-30T01:49:08.597Z,27.53
2018-03-30T01:51:36.172Z,29.93
2018-03-30T01:54:03.746Z,51.67
2018-03-30T01:56:31.310Z,37.67
2018-03-30T01:58:58.907Z,35.17
2018-03-30T02:01:26.526Z,27.70
2018-03-30T02:03:54.138Z,29.07
2018-03-30T02:06:21.698Z,50.03
2018-03-30T02:08:49.301Z,33.43
2018-03-30T02:11:16.927Z,52.87
2018-03-30T02:13:44.543Z,37.37
2018-03-30T02:16:12.118Z,59.27
2018-03-30T02:18:39.732Z,51.50
2018-03-30T02:21:07.411Z,53.67
2018-03-30T02:23:35.026Z,85.23
2018-03-30T02:26:02.586Z,63.40
2018-03-30T02:28:30.153Z,57.20
2018-03-30T02:30:57.770Z,76.30
2018-03-30T02:33:25.349Z,67.70
2018-03-30T02:35:52.910Z,59.63
2018-03-30T02:38:20.533Z,52.17
2018-03-30T02:40:48.094Z,49.57
2018-03-30T02:43:15.665Z,72.20
2018-03-30T02:45:43.275Z,45.13
2018-03-30T02:48:10.900Z,57.57
2018-03-30T02:50:38.471Z,61.40
2018-03-30T02:53:06.050Z,70.23
2018-03-30T02:55:33.667Z,76.10
2018-03-30T02:58:01.247Z,64.73
2018-03-30T03:00:28.874Z,57.53
2018-03-30T03:02:56.550Z,49.03
2018-03-30T03:05:24.128Z,55.17
2018-03-30T03:07:51.715Z,77.50
2018-03-30T03:10:19.296Z,136.27
2018-03-30T03:12:46.982Z,82.83
2018-03-30T03:15:14.542Z,122.50
2018-03-30T03:17:42.111Z,89.33
2018-03-30T03:20:09.738Z,59.83
2018-03-30T03:22:37.302Z,58.17
2018-03-30T03:25:04.870Z,79.77
2018-03-30T03:27:32.445Z,57.50
2018-03-30T03:30:00.136Z,82.73
2018-03-30T03:32:27.706Z,103.40
2018-03-30T03:34:55.266Z,115.20
2018-03-30T03:37:22.890Z,92.07
2018-03-30T03:39:50.518Z,79.97
2018-03-30T03:42:18.089Z,67.03
2018-03-30T03:44:45.646Z,92.17
2018-03-30T03:47:13.323Z,83.10
2018-03-30T03:49:40.890Z,80.67
2018-03-30T03:52:08.454Z,128.93
2018-03-30T03:54:36.029Z,119.83
2018-03-30T03:57:03.595Z,128.53
2018-03-30T03:59:31.165Z,124.97
2018-03-30T04:01:58.721Z,95.80
2018-03-30T04:04:26.342Z,98.47
2018-03-30T04:06:53.902Z,82.00
2018-03-30T04:09:21.522Z,78.30
2018-03-30T04:11:49.105Z,69.87
2018-03-30T04:14:16.674Z,142.83
2018-03-30T04:16:44.395Z,161.53
2018-03-30T04:19:11.950Z,99.17
2018-03-30T04:21:39.577Z,148.50
2018-03-30T04:24:07.170Z,129.23
2018-03-30T04:26:34.739Z,112.90
2018-03-30T04:29:02.317Z,110.23
2018-03-30T04:31:29.903Z,95.13
2018-03-30T04:33:57.535Z,103.33
2018-03-30T04:36:25.177Z,158.70
2018-03-30T04:38:52.790Z,85.97
2018-03-30T04:41:20.350Z,73.10
2018-03-30T04:43:47.914Z,124.20
2018-03-30T04:46:15.486Z,147.27
2018-03-30T04:48:43.045Z,103.50
2018-03-30T04:51:10.680Z,113.70
2018-03-30T04:53:38.298Z,95.57
2018-03-30T04:56:05.962Z,90.63
2018-03-30T04:58:33.557Z,110.90
2018-03-30T05:01:01.183Z,86.87
2018-03-30T05:03:28.770Z,86.20
2018-03-30T05:05:56.334Z,78.30
2018-03-30T05:08:23.906Z,70.77
2018-03-30T05:10:51.530Z,93.60
2018-03-30T05:13:19.191Z,84.27
2018-03-30T05:15:46.779Z,50.60
2018-03-30T05:18:14.431Z,60.97
2018-03-30T05:20:42.138Z,48.07
2018-03-30T05:23:09.794Z,62.63
2018-03-30T05:25:37.422Z,126.57
2018-03-30T05:28:05.026Z,144.33
2018-03-30T05:30:32.591Z,88.83
2018-03-30T05:33:00.223Z,60.27
2018-03-30T05:35:27.800Z,74.37
2018-03-30T05:37:55.453Z,59.83
2018-03-30T05:40:23.017Z,47.37
2018-03-30T05:42:50.634Z,47.87
2018-03-30T05:45:18.194Z,43.10
2018-03-30T05:47:45.757Z,49.60
2018-03-30T05:50:13.399Z,42.70
2018-03-30T05:52:41.022Z,54.50
2018-03-30T05:55:08.664Z,38.37
2018-03-30T05:57:36.234Z,74.93
2018-03-30T06:00:03.934Z,100.63
2018-03-30T06:02:31.497Z,51.93
2018-03-30T06:04:59.167Z,100.63
2018-03-30T06:07:26.799Z,87.13
2018-03-30T06:09:54.422Z,46.83
2018-03-30T06:12:22.002Z,24.10
2018-03-30T06:14:49.582Z,20.63
2018-03-30T06:17:17.270Z,28.03
2018-03-30T06:19:44.836Z,21.20
2018-03-30T06:22:12.401Z,22.37
2018-03-30T06:24:40.040Z,20.17
2018-03-30T06:27:07.684Z,18.37
2018-03-30T06:29:35.259Z,20.13
2018-03-30T06:32:02.918Z,30.83
2018-03-30T06:34:30.546Z,17.97
2018-03-30T06:36:58.119Z,18.10
2018-03-30T06:39:25.689Z,21.17
2018-03-30T06:41:53.266Z,19.43
2018-03-30T06:44:20.935Z,22.70
2018-03-30T06:46:48.615Z,24.33
2018-03-30T06:49:16.173Z,18.93
2018-03-30T06:51:43.795Z,31.53
2018-03-30T06:54:11.402Z,27.60
2018-03-30T06:56:38.965Z,28.27
2018-03-30T06:59:06.539Z,20.23
2018-03-30T07:01:34.167Z,16.50
2018-03-30T07:04:01.794Z,15.07
2018-03-30T07:06:29.430Z,48.37
2018-03-30T07:08:57.055Z,28.20
2018-03-30T07:11:24.689Z,45.73
2018-03-30T07:13:52.254Z,26.77
2018-03-30T07:16:19.861Z,32.87
2018-03-30T07:18:47.484Z,19.80
2018-03-30T07:21:15.106Z,19.27
2018-03-30T07:23:42.731Z,16.10
2018-03-30T07:26:10.359Z,18.10
2018-03-30T07:28:37.938Z,15.93
2018-03-30T07:31:05.505Z,15.50
2018-03-30T07:33:33.074Z,20.33
2018-03-30T07:36:00.641Z,20.70
2018-03-30T07:38:28.267Z,17.07
2018-03-30T07:40:55.844Z,25.80
2018-03-30T07:43:23.405Z,17.20
2018-03-30T07:45:50.977Z,23.40
2018-03-30T07:48:18.603Z,17.07
2018-03-30T07:50:46.165Z,18.03
2018-03-30T07:53:13.725Z,25.13
2018-03-30T07:55:41.398Z,15.50
2018-03-30T07:58:08.954Z,13.47
2018-03-30T08:00:36.575Z,17.23
2018-03-30T08:03:04.142Z,15.30
2018-03-30T08:05:31.701Z,12.50
2018-03-30T08:07:59.335Z,15.70
2018-03-30T08:10:26.893Z,14.33
2018-03-30T08:12:54.534Z,13.53
2018-03-30T08:15:22.093Z,13.10
2018-03-30T08:17:49.712Z,16.97
2018-03-30T08:20:17.346Z,20.77
2018-03-30T08:22:44.914Z,18.10
2018-03-30T08:25:12.490Z,121.93
2018-03-30T08:27:40.118Z,262.80
2018-03-30T08:30:07.761Z,143.53
2018-03-30T08:32:35.327Z,39.77
2018-03-30T08:35:02.946Z,12.90
2018-03-30T08:37:30.514Z,22.23
2018-03-30T08:39:58.078Z,18.07
2018-03-30T08:42:25.646Z,24.00
2018-03-30T08:44:53.205Z,27.53
2018-03-30T08:47:20.967Z,31.73
2018-03-30T08:49:48.530Z,24.03
2018-03-30T08:52:16.151Z,22.30
2018-03-30T08:54:43.718Z,14.77
2018-03-30T08:57:11.278Z,11.77
2018-03-30T08:59:38.907Z,14.40
2018-03-30T09:02:06.504Z,16.87
2018-03-30T09:04:34.149Z,15.03
2018-03-30T09:07:01.706Z,9.57
2018-03-30T09:09:29.262Z,33.17
2018-03-30T09:11:56.890Z,17.23
2018-03-30T09:14:24.449Z,20.20
2018-03-30T09:16:52.028Z,21.90
2018-03-30T09:19:19.653Z,23.83
2018-03-30T09:21:47.305Z,17.40
2018-03-30T09:24:14.975Z,11.27
2018-03-30T09:26:42.534Z,10.83
2018-03-30T09:29:10.102Z,20.73
2018-03-30T09:31:37.755Z,11.00
2018-03-30T09:34:05.324Z,16.10
2018-03-30T09:36:32.883Z,13.20
2018-03-30T09:39:00.512Z,32.40
2018-03-30T09:41:28.065Z,15.77
2018-03-30T09:43:55.618Z,9.80
2018-03-30T09:46:23.185Z,26.43
2018-03-30T09:48:50.846Z,10.97
2018-03-30T09:51:18.532Z,17.17
2018-03-30T09:53:46.155Z,15.70
2018-03-30T09:56:13.830Z,23.13
2018-03-30T09:58:41.385Z,12.73
2018-03-30T10:01:14.672Z,40.43
2018-03-30T10:03:42.270Z,20.47
2018-03-30T10:06:09.831Z,11.73
2018-03-30T10:08:37.393Z,7.00
2018-03-30T10:11:04.999Z,19.07
2018-03-30T10:13:32.582Z,19.63
2018-03-30T10:16:00.141Z,19.13
2018-03-30T10:18:27.772Z,13.47
2018-03-30T10:20:55.345Z,13.23
2018-03-30T10:23:22.915Z,14.27
2018-03-30T10:25:50.487Z,10.33
2018-03-30T10:28:18.069Z,57.63
2018-03-30T10:30:45.642Z,16.30
2018-03-30T10:33:13.235Z,15.20
2018-03-30T10:35:40.964Z,19.00
2018-03-30T10:38:08.546Z,15.67
2018-03-30T10:40:36.176Z,20.90
2018-03-30T10:43:03.741Z,12.60
2018-03-30T10:45:31.315Z,14.00
2018-03-30T10:47:58.893Z,17.50
2018-03-30T10:50:26.507Z,20.07
2018-03-30T10:52:54.123Z,22.33
2018-03-30T10:55:21.752Z,18.97
2018-03-30T10:57:49.320Z,28.03
2018-03-30T11:00:16.897Z,10.00
2018-03-30T11:02:44.548Z,8.00
2018-03-30T11:05:12.302Z,13.07
2018-03-30T11:07:39.857Z,19.70
2018-03-30T11:10:07.488Z,37.20
2018-03-30T11:12:35.053Z,12.63
2018-03-30T11:15:02.654Z,14.80
2018-03-30T11:17:30.252Z,19.33
2018-03-30T11:19:57.830Z,8.00
2018-03-30T11:22:25.472Z,198.00
2018-03-30T11:24:53.030Z,29.50
2018-03-30T11:27:20.664Z,8.40
2018-03-30T11:29:48.238Z,6.00
2018-03-30T11:32:15.811Z,5.43
2018-03-30T11:34:43.377Z,9.70
2018-03-30T11:37:10.934Z,12.00
2018-03-30T11:39:38.505Z,20.03
2018-03-30T11:42:06.125Z,12.17
2018-03-30T11:44:33.750Z,8.03
2018-03-30T11:47:01.312Z,13.63
2018-03-30T11:49:28.874Z,18.10
2018-03-30T11:51:56.441Z,15.33
2018-03-30T11:54:24.001Z,15.33
2018-03-30T11:56:51.566Z,19.93
2018-03-30T11:59:19.121Z,7.87
2018-03-30T12:01:46.792Z,14.57
2018-03-30T12:04:14.351Z,9.70
2018-03-30T12:06:41.906Z,8.27
2018-03-30T12:09:09.538Z,12.73
2018-03-30T12:11:37.162Z,14.07
2018-03-30T12:14:04.852Z,10.83
2018-03-30T12:16:32.409Z,10.83
2018-03-30T12:18:59.966Z,8.23
2018-03-30T12:21:27.546Z,16.37
2018-03-30T12:23:55.118Z,8.10
2018-03-30T12:26:22.730Z,8.57
2018-03-30T12:28:50.351Z,14.33
2018-03-30T12:31:17.976Z,10.07
2018-03-30T12:33:45.545Z,8.00
2018-03-30T12:36:13.119Z,16.73
2018-03-30T12:38:40.742Z,29.30
2018-03-30T12:41:08.299Z,6.80
2018-03-30T12:43:35.865Z,8.80
2018-03-30T12:46:03.550Z,12.10
2018-03-30T12:48:31.175Z,9.00
2018-03-30T12:50:58.739Z,15.80
2018-03-30T12:53:26.379Z,25.07
2018-03-30T12:55:53.942Z,15.60
2018-03-30T12:58:21.512Z,9.80
2018-03-30T13:00:49.144Z,10.43
2018-03-30T13:03:16.767Z,38.63
2018-03-30T13:05:44.338Z,29.23
2018-03-30T13:08:11.953Z,11.10
2018-03-30T13:10:39.630Z,31.53
2018-03-30T13:13:07.190Z,17.50
2018-03-30T13:15:34.768Z,11.77
2018-03-30T13:18:02.403Z,6.27
2018-03-30T13:20:29.972Z,22.37
2018-03-30T13:22:57.542Z,15.77
2018-03-30T13:25:25.159Z,17.77
2018-03-30T13:27:52.836Z,12.70
2018-03-30T13:30:20.415Z,16.40
2018-03-30T13:32:47.970Z,9.63
2018-03-30T13:35:15.556Z,24.53
2018-03-30T13:37:43.126Z,47.93
2018-03-30T13:40:10.753Z,16.23
2018-03-30T13:42:38.319Z,15.37
2018-03-30T13:45:05.887Z,42.57
2018-03-30T13:47:33.462Z,9.70
2018-03-30T13:50:01.029Z,16.90
2018-03-30T13:52:47.363Z,11.43
2018-03-30T13:55:18.729Z,9.10
2018-03-30T14:01:05.078Z,24.23
2018-03-30T14:03:45.394Z,20.47
2018-03-30T14:09:18.374Z,8.13
2018-03-30T14:11:46.940Z,18.23
2018-03-30T14:14:14.572Z,13.83
2018-03-30T14:16:46.730Z,5.90
2018-03-30T14:19:21.980Z,6.90
2018-03-30T14:25:07.010Z,5.57
2018-03-30T14:30:47.501Z,6.20
2018-03-30T14:33:23.965Z,11.13
2018-03-30T14:36:07.322Z,8.93
2018-03-30T14:38:34.958Z,12.20
2018-03-30T14:41:02.616Z,11.03
2018-03-30T14:43:31.010Z,15.20
2018-03-30T14:48:58.477Z,5.83
2018-03-30T14:51:47.818Z,10.10
2018-03-30T14:54:20.179Z,8.43
2018-03-30T15:00:00.308Z,14.60
2018-03-30T15:02:29.491Z,7.50
2018-03-30T15:05:02.738Z,8.27
2018-03-30T15:07:33.365Z,34.17
2018-03-30T15:10:05.949Z,8.33
2018-03-30T15:12:42.672Z,46.57
2018-03-30T15:15:17.782Z,4.83
2018-03-30T15:17:49.095Z,10.70
2018-03-30T15:20:34.027Z,10.07
2018-03-30T15:23:11.590Z,7.90
2018-03-30T15:25:44.978Z,10.00
2018-03-30T15:28:14.239Z,21.27
2018-03-30T15:30:42.734Z,14.93
2018-03-30T15:33:16.077Z,26.83
2018-03-30T15:35:43.710Z,32.63
2018-03-30T15:38:11.277Z,114.27
2018-03-30T15:40:39.011Z,53.47
2018-03-30T15:43:09.849Z,104.63
2018-03-30T15:45:44.270Z,40.50
2018-03-30T15:48:11.849Z,27.47
2018-03-30T15:50:39.508Z,45.63
2018-03-30T15:53:07.218Z,20.83
2018-03-30T15:55:34.794Z,34.23
2018-03-30T15:58:02.390Z,28.03
2018-03-30T16:00:30.037Z,26.47
2018-03-30T16:02:57.654Z,33.10
2018-03-30T16:05:25.222Z,29.73
2018-03-30T16:07:52.865Z,39.67
2018-03-30T16:10:33.199Z,22.97
2018-03-30T16:13:00.834Z,22.60
2018-03-30T16:15:28.410Z,31.50
2018-03-30T16:17:55.982Z,34.03
2018-03-30T16:20:23.018Z,73.10
2018-03-30T16:22:50.046Z,61.27
2018-03-30T16:25:17.127Z,75.00
2018-03-30T16:27:44.153Z,79.20
2018-03-30T16:30:11.454Z,62.73
2018-03-30T16:32:38.750Z,54.43
2018-03-30T16:35:05.837Z,41.37
2018-03-30T16:37:32.870Z,39.93
2018-03-30T16:39:59.913Z,44.40
2018-03-30T16:42:27.059Z,39.80
2018-03-30T16:44:54.090Z,45.20
2018-03-30T16:47:21.176Z,30.07
2018-03-30T16:49:48.212Z,28.73
2018-03-30T16:52:15.243Z,37.57
2018-03-30T16:54:42.278Z,24.10
2018-03-30T16:57:09.301Z,30.37
2018-03-30T16:59:36.491Z,25.83
2018-03-30T17:02:03.510Z,32.30
2018-03-30T17:04:30.575Z,38.00
2018-03-30T17:06:57.610Z,26.50
2018-03-30T17:09:24.641Z,24.23
2018-03-30T17:11:51.741Z,36.93
2018-03-30T17:14:18.833Z,28.50
2018-03-30T17:16:45.910Z,29.30
2018-03-30T17:19:13.004Z,19.30
2018-03-30T17:21:40.035Z,22.40
2018-03-30T17:24:07.126Z,27.90
2018-03-30T17:26:34.154Z,32.03
2018-03-30T17:29:01.247Z,17.80
2018-03-30T17:31:28.338Z,21.23
2018-03-30T17:33:55.440Z,17.47
2018-03-30T17:36:22.463Z,14.23
2018-03-30T17:38:49.554Z,18.07
2018-03-30T17:41:16.599Z,14.83
2018-03-30T17:43:43.627Z,20.07
2018-03-30T17:46:10.715Z,15.87
2018-03-30T17:48:37.816Z,22.53
2018-03-30T17:51:05.020Z,13.03
2018-03-30T17:53:32.099Z,17.03
2018-03-30T17:55:59.126Z,29.13
2018-03-30T17:58:26.209Z,14.93
2018-03-30T18:00:53.277Z,13.00
2018-03-30T18:03:20.395Z,20.23
2018-03-30T18:05:47.543Z,18.50
2018-03-30T18:08:14.635Z,17.60
2018-03-30T18:10:41.662Z,19.30
2018-03-30T18:13:08.684Z,17.10
2018-03-30T18:15:35.722Z,14.87
2018-03-30T18:18:02.809Z,14.93
2018-03-30T18:20:29.935Z,21.63
2018-03-30T18:22:57.015Z,15.17
2018-03-30T18:27:56.509Z,12.63
2018-03-30T18:30:23.605Z,23.27
2018-03-30T18:32:50.731Z,15.57
2018-03-30T18:35:17.763Z,15.87
2018-03-30T18:37:44.847Z,13.73
2018-03-30T18:40:11.943Z,16.67
2018-03-30T18:42:40.252Z,13.40
2018-03-30T18:45:07.302Z,16.70
2018-03-30T18:47:34.379Z,16.20
2018-03-30T18:50:01.424Z,25.30
2018-03-30T18:52:28.467Z,16.10
2018-03-30T18:54:55.608Z,16.03
2018-03-30T18:57:22.720Z,21.03
2018-03-30T18:59:49.740Z,14.57
2018-03-30T19:02:16.779Z,16.37
2018-03-30T19:04:43.844Z,16.33
2018-03-30T19:07:10.885Z,17.77
2018-03-30T19:09:37.914Z,17.27
2018-03-30T19:12:04.996Z,48.30
2018-03-30T19:14:32.898Z,15.10
2018-03-30T19:16:59.959Z,20.13
2018-03-30T19:19:27.012Z,23.90
2018-03-30T19:21:54.111Z,27.17
2018-03-30T19:24:21.960Z,19.80
2018-03-30T19:26:48.977Z,17.47
2018-03-30T19:29:16.067Z,19.57
2018-03-30T19:31:43.152Z,24.40
2018-03-30T19:34:10.174Z,25.67
2018-03-30T19:36:37.232Z,17.40
2018-03-30T19:39:04.257Z,16.73
2018-03-30T19:41:31.350Z,17.50
2018-03-30T19:43:58.430Z,28.13
2018-03-30T19:46:25.539Z,22.53
2018-03-30T19:48:52.626Z,27.80
2018-03-30T19:51:19.664Z,19.87
2018-03-30T19:53:46.745Z,17.97
2018-03-30T19:56:13.802Z,27.50
2018-03-30T19:58:40.928Z,15.97
2018-03-30T20:01:07.986Z,18.70
2018-03-30T20:03:35.134Z,18.70
2018-03-30T20:06:02.163Z,28.03
2018-03-30T20:08:29.194Z,19.97
2018-03-30T20:10:56.234Z,17.27
2018-03-30T20:13:23.263Z,21.07
2018-03-30T20:15:50.398Z,16.37
2018-03-30T20:18:17.482Z,18.70
2018-03-30T20:20:44.518Z,21.03
2018-03-30T20:23:11.561Z,16.80
2018-03-30T20:25:38.649Z,14.83
2018-03-30T20:28:05.744Z,15.20
2018-03-30T20:30:32.845Z,17.23
2018-03-30T20:32:59.869Z,24.37
2018-03-30T20:35:26.916Z,18.03
2018-03-30T20:37:53.938Z,17.20
2018-03-30T20:40:21.031Z,19.00
2018-03-30T20:42:48.046Z,26.53
2018-03-30T20:45:15.095Z,38.53
2018-03-30T20:47:42.181Z,33.27
2018-03-30T20:50:09.266Z,19.80
2018-03-30T20:52:36.296Z,16.83
2018-03-30T20:55:03.322Z,12.90
2018-03-30T20:57:30.410Z,18.00
2018-03-30T20:59:57.426Z,16.20
2018-03-30T21:02:24.522Z,10.97
2018-03-30T21:04:51.542Z,10.60
2018-03-30T21:07:18.705Z,10.20
2018-03-30T21:09:45.725Z,6.77
2018-03-30T21:12:12.750Z,9.73
2018-03-30T21:14:39.778Z,8.67
2018-03-30T21:17:06.805Z,4.60
2018-03-30T21:19:33.830Z,14.23
2018-03-30T21:22:00.926Z,6.20
2018-03-30T21:24:28.082Z,17.90
2018-03-30T21:26:55.105Z,4.60
2018-03-30T21:29:22.221Z,3.33
2018-03-30T21:31:49.258Z,19.33
2018-03-30T21:34:16.281Z,4.00
2018-03-30T21:36:43.358Z,3.43
2018-03-30T21:39:10.402Z,6.57
2018-03-30T21:41:37.548Z,5.27
2018-03-30T21:44:04.566Z,18.57
2018-03-30T21:46:31.652Z,2.53
2018-03-30T21:48:58.738Z,2.60
2018-03-30T21:51:25.758Z,4.10
2018-03-30T21:53:52.847Z,8.07
2018-03-30T21:56:19.865Z,2.10
2018-03-30T21:58:46.952Z,2.97
2018-03-30T22:01:13.978Z,3.93
2018-03-30T22:03:40.994Z,4.33
2018-03-30T22:06:08.029Z,3.60
2018-03-30T22:08:35.054Z,1.60
2018-03-30T22:11:02.087Z,1.70
2018-03-30T22:13:29.111Z,4.27
2018-03-30T22:15:56.246Z,2.53
2018-03-30T22:18:23.304Z,7.40
2018-03-30T22:20:50.342Z,1.63
2018-03-30T22:23:17.370Z,6.20
2018-03-30T22:25:44.400Z,2.33
2018-03-30T22:28:11.486Z,1.93
2018-03-30T22:30:38.566Z,5.10
2018-03-30T22:33:05.694Z,2.57
2018-03-30T22:35:32.718Z,5.47
2018-03-30T22:37:59.795Z,4.50
2018-03-30T22:40:26.828Z,6.50
2018-03-30T22:42:53.910Z,1.90
2018-03-30T22:45:20.943Z,3.23
2018-03-30T22:47:47.967Z,5.40
2018-03-30T22:50:15.105Z,1.20
2018-03-30T22:52:42.183Z,1.20
2018-03-30T22:55:09.211Z,2.00
2018-03-30T22:57:36.234Z,2.40
2018-03-30T23:00:03.260Z,2.30
2018-03-30T23:02:30.350Z,3.10
2018-03-30T23:04:57.373Z,2.50
2018-03-30T23:07:24.464Z,2.20
2018-03-30T23:09:51.483Z,1.77
2018-03-30T23:12:18.523Z,1.17
2018-03-30T23:14:45.564Z,2.10
2018-03-30T23:17:12.600Z,2.33
2018-03-30T23:19:39.688Z,3.63
2018-03-30T23:22:06.698Z,1.60
2018-03-30T23:24:33.765Z,2.93
2018-03-30T23:27:00.801Z,3.23
2018-03-30T23:29:27.888Z,4.00
2018-03-30T23:31:54.928Z,2.07
2018-03-30T23:34:21.946Z,0.97
2018-03-30T23:36:49.003Z,1.93
2018-03-30T23:39:16.078Z,1.23
2018-03-30T23:41:43.154Z,1.40
2018-03-30T23:44:10.177Z,2.40
2018-03-30T23:46:37.294Z,1.40
2018-03-30T23:49:04.329Z,2.50
2018-03-30T23:51:31.343Z,2.00
2018-03-30T23:53:58.361Z,1.10
2018-03-30T23:56:25.441Z,1.27
2018-03-30T23:58:52.574Z,3.00
